Latest Weather Observations for Falls Creek

IDV60801

Issued at 8:05 pm EDT Tuesday 21 October 2014 (issued every 30 minutes, with the page automatically refreshed every 10 minutes)

About weather observations | Map of weather stations | Latest weather observations for VIC | Other Formats
Station Details ID: 083084 Name: FALLS CREEK Lat: -36.87 Lon: 147.28 Height: 1765.0 m
Data from the previous 72 hours. | See also: Recent months at Falls Creek
Date/Time
EDT
Temp
°C
App
Temp
°C
Dew
Point
Rel
Hum
%
Delta-T
°C
Wind Press
QNH
hPa
Press
MSL
hPa
Rain
since 9 am
mm
Dir
 
Spd
km/h
Gust
km/h
Spd
kts
Gust
kts
21/08:00pm 9.0 - 7.6 91 0.7 - - - - - 1030.0 1028.4 0.0
21/07:30pm 9.7 - 7.8 88 1.0 - - - - - 1029.7 1028.2 0.0
21/07:00pm 10.3 - 8.1 86 1.2 - - - - - 1029.6 1028.1 0.0
21/06:30pm 11.6 - 8.5 81 1.7 - - - - - 1029.6 1028.1 0.0
21/06:00pm 12.2 - 8.7 79 1.9 - - - - - 1029.5 1027.9 0.0
21/05:30pm 13.3 - 8.8 74 2.5 - - - - - 1029.4 1027.8 0.0
21/05:00pm 13.8 - 8.8 72 2.8 - - - - - 1029.4 1027.8 0.0
21/04:30pm 13.6 - 8.9 73 2.6 - - - - - 1029.5 1027.9 0.0
21/04:00pm 13.9 - 8.7 71 2.9 - - - - - 1029.6 1028.1 0.0
21/03:30pm 16.0 - 9.4 65 3.7 - - - - - 1029.7 1028.2 0.0
21/03:00pm 15.0 - 8.7 66 3.5 - - - - - 1030.0 1028.4 0.0
21/02:30pm 15.8 - 9.2 65 3.7 - - - - - 1030.2 1028.7 0.0
21/02:00pm 15.5 - 8.5 63 3.9 - - - - - 1030.6 1029.0 0.0
21/01:30pm 15.9 - 8.9 63 3.9 - - - - - 1030.7 1029.2 0.0
21/01:00pm 14.7 - 8.2 65 3.6 - - - - - 1030.9 1029.4 0.0
21/12:30pm 14.5 - 8.9 69 3.1 - - - - - 1031.0 1029.5 0.0
21/12:00pm 13.6 - 7.6 67 3.2 - - - - - 1031.2 1029.7 0.0
21/11:30am 13.3 - 7.7 69 3.0 - - - - - 1031.3 1029.8 0.0
21/11:00am 12.5 - 7.2 70 2.8 - - - - - 1031.3 1029.8 0.0
21/10:30am 12.4 - 7.3 71 2.7 - - - - - 1031.2 1029.7 0.0
21/10:00am 11.5 - 6.6 72 2.5 - - - - - 1031.2 1029.7 0.0
21/09:30am 10.6 - 6.6 76 2.1 - - - - - 1030.9 1029.4 0.0
21/09:00am 10.7 - 5.3 69 2.7 - - - - - 1030.8 1029.3 0.0
21/08:30am 9.5 - 4.3 70 2.6 - - - - - 1030.7 1029.2 0.0
21/08:00am 8.6 - 4.8 77 1.9 - - - - - 1030.3 1028.8 0.0
21/07:30am 7.6 - 4.0 78 1.7 - - - - - 1030.0 1028.4 0.0
21/07:00am 7.3 - 3.2 75 1.9 - - - - - 1029.7 1028.2 0.0
21/06:30am 6.6 - 4.4 86 1.1 - - - - - 1029.4 1027.8 0.0
21/06:00am 6.6 - 4.6 87 1.0 - - - - - 1029.1 1027.6 0.0
21/05:30am 6.6 - 4.8 88 0.9 - - - - - 1028.9 1027.3 0.0
21/05:00am 6.4 - 5.5 94 0.4 - - - - - 1029.0 1027.4 0.0
21/04:30am 7.2 - 5.2 87 1.0 - - - - - 1028.9 1027.3 0.0
21/04:00am 6.7 - 5.5 92 0.6 - - - - - 1028.9 1027.3 0.0
21/03:30am 6.8 - 5.7 93 0.5 - - - - - 1029.3 1027.7 0.0
21/03:00am 6.8 - 5.4 91 0.7 - - - - - 1029.4 1027.8 0.0
21/02:30am 7.0 - 5.5 90 0.7 - - - - - 1029.4 1027.8 0.0
21/02:00am 7.1 - 5.3 88 0.9 - - - - - 1029.6 1028.1 0.0
21/01:30am 7.1 - 4.4 83 1.3 - - - - - 1029.7 1028.2 0.0
21/01:00am 7.9 - 5.2 83 1.3 - - - - - 1030.0 1028.4 0.0
21/12:30am 8.1 - 5.0 81 1.5 - - - - - 1030.0 1028.4 0.0
21/12:00am 8.3 - 3.8 73 2.2 - - - - - 1030.2 1028.7 0.0
 
Date/Time
EDT
Temp
°C
App
Temp
°C
Dew
Point
Rel
Hum
%
Delta-T
°C
Wind Press
QNH
hPa
Press
MSL
hPa
Rain
since 9 am
mm
Dir
 
Spd
km/h
Gust
km/h
Spd
kts
Gust
kts
20/11:30pm 8.4 - 5.7 83 1.4 - - - - - 1030.2 1028.7 0.0
20/11:00pm 8.3 - 6.1 86 1.1 - - - - - 1030.2 1028.7 0.0
20/10:30pm 5.8 - 5.8 100 0.0 - - - - - 1030.3 1028.8 0.0
20/10:00pm 3.8 - 3.2 96 0.3 - - - - - 1030.3 1028.8 0.0
20/09:30pm 3.3 - 2.9 97 0.2 - - - - - 1030.2 1028.7 0.0
20/09:00pm 3.2 - 3.1 99 0.0 - - - - - 1030.1 1028.5 0.0
20/08:30pm 3.5 - 3.1 97 0.2 - - - - - 1029.7 1028.2 0.0
20/08:00pm 4.1 - 3.2 94 0.4 - - - - - 1029.5 1027.9 0.0
20/07:30pm 5.0 - 3.7 91 0.6 - - - - - 1029.5 1027.9 0.0
20/07:00pm 6.5 - 4.0 84 1.2 - - - - - 1029.4 1027.8 0.0
20/06:30pm 7.8 - 4.7 81 1.5 - - - - - 1029.3 1027.7 0.0
20/06:00pm 8.8 - 5.2 78 1.8 - - - - - 1029.3 1027.7 0.0
20/05:30pm 9.9 - 5.5 74 2.2 - - - - - 1029.1 1027.6 0.0
20/05:00pm 10.4 - 5.8 73 2.3 - - - - - 1029.1 1027.6 0.0
20/04:30pm 10.8 - 6.0 72 2.5 - - - - - 1029.1 1027.6 0.0
20/04:00pm 10.8 - 5.6 70 2.6 - - - - - 1029.0 1027.4 0.0
20/03:30pm 10.8 - 5.6 70 2.7 - - - - - 1029.0 1027.4 0.0
20/03:00pm 13.3 - 6.6 64 3.5 - - - - - 1029.0 1027.4 0.0
20/02:30pm 13.7 - 6.6 62 3.8 - - - - - 1029.1 1027.6 0.0
20/02:00pm 14.6 - 7.4 62 3.9 - - - - - 1029.4 1027.8 0.0
20/01:30pm 14.9 - 6.5 57 4.5 - - - - - 1029.6 1028.1 0.0
20/01:00pm 15.3 - 4.9 50 5.4 - - - - - 1029.5 1027.9 0.0
20/12:30pm 14.5 - 3.6 48 5.5 - - - - - 1029.6 1028.1 0.0
20/12:00pm 13.7 - 4.6 54 4.6 - - - - - 1030.0 1028.4 0.0
20/11:30am 11.7 - 6.4 70 2.8 - - - - - 1030.0 1028.4 0.0
20/11:00am 10.5 - 5.1 69 2.7 - - - - - 1030.0 1028.4 0.0
20/10:30am 12.3 - 6.1 66 3.2 - - - - - 1029.9 1028.3 0.0
20/10:00am 12.5 - 4.0 56 4.2 - - - - - 1029.6 1028.1 0.0
20/09:30am 11.3 - 7.8 79 1.9 - - - - - 1029.4 1027.8 0.0
20/09:00am 6.5 - 6.5 100 0.0 - - - - - 1029.1 1027.6 0.0
20/08:30am 4.2 - 4.2 100 0.0 - - - - - 1028.7 1027.1 0.0
20/08:00am 2.9 - 2.9 100 0.0 - - - - - 1028.4 1026.8 0.0
20/07:30am 2.5 - 2.5 100 0.0 - - - - - 1028.1 1026.4 0.0
20/07:00am 2.5 - 2.5 100 0.0 - - - - - 1027.8 1026.2 0.0
20/06:30am 2.4 - 2.4 100 0.0 - - - - - 1027.8 1026.2 0.0
20/06:00am 2.4 - 2.4 100 0.0 - - - - - 1027.5 1025.8 0.0
20/05:30am 2.9 - 2.9 100 0.0 - - - - - 1027.5 1025.8 0.0
20/05:00am 3.1 - 3.1 100 0.0 - - - - - 1027.5 1025.8 0.0
20/04:30am 3.6 - 3.6 100 0.0 - - - - - 1027.5 1025.8 0.0
20/04:00am 4.3 - 4.3 100 0.0 - - - - - 1027.6 1026.0 0.0
20/03:30am 4.1 - 4.1 100 0.0 - - - - - 1027.7 1026.1 0.0
20/03:00am 4.6 - 3.7 94 0.4 - - - - - 1027.7 1026.1 0.0
20/02:58am 4.8 - 3.6 92 0.6 - - - - - 1027.7 1026.1 0.0
20/02:30am 9.9 - 1.5 56 3.9 - - - - - 1027.7 1026.1 0.0
20/02:00am 10.4 - 1.2 53 4.2 - - - - - 1027.8 1026.2 0.0
20/01:30am 10.6 - 1.2 52 4.4 - - - - - 1028.2 1026.6 0.0
20/01:00am 10.9 - 0.6 49 4.7 - - - - - 1028.2 1026.6 0.0
20/12:30am 10.9 - 0.3 48 4.8 - - - - - 1028.3 1026.7 0.0
20/12:00am 11.0 - 0.7 49 4.7 - - - - - 1028.7 1027.1 0.0
 
Date/Time
EDT
Temp
°C
App
Temp
°C
Dew
Point
Rel
Hum
%
Delta-T
°C
Wind Press
QNH
hPa
Press
MSL
hPa
Rain
since 9 am
mm
Dir
 
Spd
km/h
Gust
km/h
Spd
kts
Gust
kts
19/11:30pm 11.1 - 0.5 48 4.9 - - - - - 1028.7 1027.1 0.0
19/11:00pm 11.0 - 0.7 49 4.7 - - - - - 1028.7 1027.1 0.0
19/10:30pm 10.9 - 0.9 50 4.6 - - - - - 1028.4 1026.8 0.0
19/10:00pm 10.9 - 1.2 51 4.5 - - - - - 1028.8 1027.2 0.0
19/09:30pm 10.8 - 1.4 52 4.4 - - - - - 1028.3 1026.7 0.0
19/09:00pm 10.5 - 1.6 54 4.1 - - - - - 1028.3 1026.7 0.0
19/08:30pm 10.6 - 1.7 54 4.2 - - - - - 1028.3 1026.7 0.0
19/08:00pm 10.2 - 1.8 56 3.9 - - - - - 1028.3 1026.7 0.0
19/07:30pm 10.5 - 1.6 54 4.2 - - - - - 1028.3 1026.7 0.0
19/07:00pm 10.8 - 1.4 52 4.4 - - - - - 1028.2 1026.6 0.0
19/06:30pm 11.2 - 1.5 51 4.5 - - - - - 1028.1 1026.4 0.0
19/06:00pm 11.8 - 2.0 51 4.6 - - - - - 1028.0 1026.3 0.0
19/05:30pm 12.5 - 2.7 51 4.8 - - - - - 1027.6 1026.0 0.0
19/05:00pm 12.1 - 3.3 55 4.3 - - - - - 1027.4 1025.7 0.0
19/04:30pm 13.1 - 3.7 53 4.7 - - - - - 1027.4 1025.7 0.0
19/04:00pm 13.0 - 3.7 53 4.6 - - - - - 1027.2 1025.6 0.0
19/03:30pm 13.4 - 3.8 52 4.8 - - - - - 1027.5 1025.8 0.0
19/03:00pm 12.1 - 3.1 54 4.4 - - - - - 1027.5 1025.8 0.0
19/02:30pm 11.1 - 2.9 57 4.0 - - - - - 1027.8 1026.2 0.0
19/02:00pm 10.0 - 2.8 61 3.4 - - - - - 1028.2 1026.6 0.0
19/01:30pm 10.6 - 2.7 58 3.8 - - - - - 1028.7 1027.1 0.0
19/01:00pm 11.3 - 3.1 57 4.0 - - - - - 1028.7 1027.1 0.0
19/12:30pm 8.9 - 2.7 65 2.9 - - - - - 1028.9 1027.3 0.0
19/12:00pm 9.7 - 2.8 62 3.3 - - - - - 1029.0 1027.4 0.0
19/11:30am 10.2 - 1.6 55 4.0 - - - - - 1028.9 1027.3 0.0
19/11:00am 10.8 - 2.4 56 4.0 - - - - - 1029.0 1027.4 0.0
19/10:30am 11.2 - 1.7 52 4.5 - - - - - 1029.3 1027.7 0.0
19/10:00am 9.6 - 0.2 52 4.2 - - - - - 1029.1 1027.6 0.0
19/09:30am 10.4 - -0.1 48 4.7 - - - - - 1029.3 1027.7 0.0
19/09:00am 8.9 - -1.2 49 4.3 - - - - - 1029.4 1027.8 0.0
19/08:30am 8.9 - -1.8 47 4.6 - - - - - 1029.1 1027.6 0.0
19/08:00am 8.4 - -1.4 50 4.2 - - - - - 1029.0 1027.4 0.0
19/07:30am 8.3 - -1.5 50 4.2 - - - - - 1029.1 1027.6 0.0
19/07:00am 8.4 - -2.2 47 4.4 - - - - - 1028.8 1027.2 0.0
19/06:30am 8.7 - -3.2 43 4.9 - - - - - 1028.7 1027.1 0.0
19/06:00am 9.0 - -4.5 38 5.4 - - - - - 1028.1 1026.4 0.0
19/05:30am 9.3 - -5.4 35 5.8 - - - - - 1027.8 1026.2 0.0
19/05:00am 8.9 - -3.9 40 5.2 - - - - - 1027.5 1025.8 0.0
19/04:30am 8.6 - -3.9 41 5.1 - - - - - 1027.5 1025.8 0.0
19/04:00am 8.5 - -3.3 43 4.8 - - - - - 1027.7 1026.1 0.0
19/03:30am 8.6 - -3.3 43 4.9 - - - - - 1027.7 1026.1 0.0
19/03:00am 7.9 - -1.9 50 4.1 - - - - - 1027.8 1026.2 0.0
19/02:30am 8.0 - -2.6 47 4.4 - - - - - 1028.4 1026.8 0.0
19/02:00am 7.2 - -1.5 54 3.7 - - - - - 1029.0 1027.4 0.0
19/01:30am 7.4 - -3.2 47 4.3 - - - - - 1029.1 1027.6 0.0
19/01:00am 7.2 - -1.7 53 3.7 - - - - - 1029.6 1028.1 0.0
19/12:30am 7.1 - -3.1 48 4.1 - - - - - 1029.6 1028.1 0.0
19/12:00am 6.7 - 1.2 68 2.4 - - - - - 1029.9 1028.3 0.0
 
Date/Time
EDT
Temp
°C
App
Temp
°C
Dew
Point
Rel
Hum
%
Delta-T
°C
Wind Press
QNH
hPa
Press
MSL
hPa
Rain
since 9 am
mm
Dir
 
Spd
km/h
Gust
km/h
Spd
kts
Gust
kts
18/11:30pm 7.2 - 0.4 62 3.0 - - - - - 1029.9 1028.3 0.0
18/11:00pm 7.7 - 1.8 66 2.7 - - - - - 1029.7 1028.2 0.0
18/10:30pm 7.1 - 4.1 81 1.4 - - - - - 1029.7 1028.2 0.0
18/10:00pm 6.9 - 3.7 80 1.5 - - - - - 1029.9 1028.3 0.0
18/09:30pm 6.7 - 4.2 84 1.2 - - - - - 1029.9 1028.3 0.0
18/09:00pm 6.7 - 4.0 83 1.3 - - - - - 1029.3 1027.7 0.0
18/08:30pm 6.7 - 4.0 83 1.3 - - - - - 1029.0 1027.4 0.0

Other Formats:

Comma delimited format used in spreadsheet applications
http://www.bom.gov.au/fwo/IDV60801/IDV60801.94903.axf

JavaScript Object Notation format (JSON) in row-major order
http://www.bom.gov.au/fwo/IDV60801/IDV60801.94903.json